createdAt,value
2023-04-20T00:01:30.983Z,12.26
2023-04-20T00:03:59.030Z,12.27
2023-04-20T00:06:29.826Z,12.27
2023-04-20T00:08:58.032Z,12.28
2023-04-20T00:11:26.789Z,12.27
2023-04-20T00:13:55.029Z,12.28
2023-04-20T00:16:23.441Z,12.27
2023-04-20T00:18:51.656Z,12.26
2023-04-20T00:21:24.203Z,12.26
2023-04-20T00:23:52.290Z,12.25
2023-04-20T00:26:21.349Z,12.24
2023-04-20T00:28:51.753Z,12.24
2023-04-20T00:31:20.630Z,12.26
2023-04-20T00:33:48.870Z,12.27
2023-04-20T00:36:16.928Z,12.30
2023-04-20T00:38:44.954Z,12.29
2023-04-20T00:41:12.954Z,12.29
2023-04-20T00:43:52.622Z,12.27
2023-04-20T00:46:21.472Z,12.25
2023-04-20T00:48:52.502Z,12.23
2023-04-20T00:51:23.609Z,12.21
2023-04-20T00:53:51.724Z,12.21
2023-04-20T00:56:20.074Z,12.20
2023-04-20T00:58:48.182Z,12.19
2023-04-20T01:01:17.966Z,12.18
2023-04-20T01:03:47.942Z,12.17
2023-04-20T01:06:16.187Z,12.15
2023-04-20T01:08:49.217Z,12.14
2023-04-20T01:11:17.715Z,12.13
2023-04-20T01:13:46.034Z,12.13
2023-04-20T01:16:14.194Z,12.11
2023-04-20T01:18:49.594Z,12.10
2023-04-20T01:21:18.758Z,12.10
2023-04-20T01:23:46.999Z,12.09
2023-04-20T01:26:16.682Z,12.07
2023-04-20T01:28:45.091Z,12.07
2023-04-20T01:31:13.665Z,12.06
2023-04-20T01:33:42.302Z,12.07
2023-04-20T01:36:10.728Z,12.07
2023-04-20T01:38:38.767Z,12.07
2023-04-20T01:41:08.153Z,12.06
2023-04-20T01:43:36.682Z,12.05
2023-04-20T01:46:06.396Z,12.04
2023-04-20T01:48:34.588Z,12.04
2023-04-20T01:51:02.681Z,12.03
2023-04-20T01:53:30.774Z,12.05
2023-04-20T01:55:59.114Z,12.04
2023-04-20T01:58:27.503Z,12.04
2023-04-20T02:00:56.165Z,12.04
2023-04-20T02:03:24.414Z,12.04
2023-04-20T02:05:53.217Z,12.03
2023-04-20T02:08:22.370Z,12.02
2023-04-20T02:10:50.454Z,12.00
2023-04-20T02:13:18.512Z,11.98
2023-04-20T02:15:46.641Z,11.95
2023-04-20T02:18:16.329Z,11.93
2023-04-20T02:20:44.906Z,11.92
2023-04-20T02:23:12.956Z,11.92
2023-04-20T02:25:41.137Z,11.91
2023-04-20T02:28:09.189Z,11.91
2023-04-20T02:30:39.836Z,11.90
2023-04-20T02:33:07.981Z,11.89
2023-04-20T02:35:36.372Z,11.87
2023-04-20T02:38:04.572Z,11.86
2023-04-20T02:40:33.362Z,11.85
2023-04-20T02:43:01.434Z,11.86
2023-04-20T02:45:31.028Z,11.85
2023-04-20T02:47:59.644Z,11.84
2023-04-20T02:50:28.537Z,11.84
2023-04-20T02:53:17.840Z,11.84
2023-04-20T02:55:48.431Z,11.84
2023-04-20T02:58:29.127Z,11.85
2023-04-20T03:01:26.674Z,11.83
2023-04-20T03:04:02.118Z,11.82
2023-04-20T03:06:32.850Z,11.82
2023-04-20T03:09:01.697Z,11.82
2023-04-20T03:11:48.906Z,11.82
2023-04-20T03:14:27.791Z,11.83
2023-04-20T03:16:55.818Z,11.84
2023-04-20T03:19:24.456Z,11.84
2023-04-20T03:21:52.564Z,11.84
2023-04-20T03:24:20.860Z,11.86
2023-04-20T03:26:48.918Z,11.86
2023-04-20T03:29:20.594Z,11.88
2023-04-20T03:31:49.022Z,11.88
2023-04-20T03:34:17.520Z,11.89
2023-04-20T03:36:46.345Z,11.88
2023-04-20T03:39:14.510Z,11.88
2023-04-20T03:41:43.760Z,11.87
2023-04-20T03:44:12.071Z,11.87
2023-04-20T03:46:40.076Z,11.89
2023-04-20T03:49:08.213Z,11.89
2023-04-20T03:51:36.245Z,11.90
2023-04-20T03:54:06.695Z,11.90
2023-04-20T03:56:35.380Z,11.90
2023-04-20T03:59:03.619Z,11.91
2023-04-20T04:01:32.010Z,11.92
2023-04-20T04:04:00.658Z,11.93
2023-04-20T04:06:29.270Z,11.94
2023-04-20T04:08:57.884Z,11.94
2023-04-20T04:11:26.874Z,11.94
2023-04-20T04:13:55.097Z,11.94
2023-04-20T04:16:23.739Z,11.96
2023-04-20T04:18:51.947Z,11.97
2023-04-20T04:21:20.178Z,11.98
2023-04-20T04:23:53.826Z,11.98
2023-04-20T04:26:45.783Z,11.98
2023-04-20T04:29:14.324Z,11.99
2023-04-20T04:31:42.712Z,12.00
2023-04-20T04:34:18.665Z,12.02
2023-04-20T04:36:50.529Z,12.02
2023-04-20T04:39:22.696Z,12.01
2023-04-20T04:41:57.857Z,11.99
2023-04-20T04:44:35.036Z,12.00
2023-04-20T04:47:05.657Z,11.99
2023-04-20T04:49:35.879Z,11.95
2023-04-20T04:52:04.258Z,11.92
2023-04-20T04:54:32.566Z,11.89
2023-04-20T04:57:01.697Z,11.89
2023-04-20T04:59:29.997Z,11.87
2023-04-20T05:01:58.059Z,11.81
2023-04-20T05:04:26.762Z,11.80
2023-04-20T05:06:54.979Z,11.79
2023-04-20T05:09:23.037Z,11.79
2023-04-20T05:11:51.093Z,11.79
2023-04-20T05:14:19.207Z,11.78
2023-04-20T05:16:47.532Z,11.75
2023-04-20T05:19:15.980Z,11.73
2023-04-20T05:21:44.119Z,11.73
2023-04-20T05:24:12.330Z,11.73
2023-04-20T05:26:40.719Z,11.74
2023-04-20T05:29:08.786Z,11.72
2023-04-20T05:31:37.609Z,11.70
2023-04-20T05:34:06.074Z,11.67
2023-04-20T05:36:34.378Z,11.63
2023-04-20T05:39:02.406Z,11.55
2023-04-20T05:41:30.761Z,11.52
2023-04-20T05:43:58.810Z,11.48
2023-04-20T05:46:27.104Z,11.45
2023-04-20T05:48:55.823Z,11.40
2023-04-20T05:51:25.951Z,11.34
2023-04-20T05:53:54.025Z,11.29
2023-04-20T05:56:22.172Z,11.27
2023-04-20T05:58:50.337Z,11.25
2023-04-20T06:01:18.775Z,11.21
2023-04-20T06:03:49.164Z,11.18
2023-04-20T06:06:17.389Z,11.16
2023-04-20T06:08:45.538Z,11.17
2023-04-20T06:11:13.616Z,11.18
2023-04-20T06:13:41.929Z,11.19
2023-04-20T06:16:11.098Z,11.20
2023-04-20T06:18:39.313Z,11.21
2023-04-20T06:21:09.898Z,11.22
2023-04-20T06:23:38.486Z,11.22
2023-04-20T06:26:09.009Z,11.20
2023-04-20T06:28:37.576Z,11.17
2023-04-20T06:31:06.188Z,11.19
2023-04-20T06:33:35.025Z,11.22
2023-04-20T06:36:07.145Z,11.26
2023-04-20T06:38:35.411Z,11.35
2023-04-20T06:41:03.830Z,11.43
2023-04-20T06:43:32.368Z,11.54
2023-04-20T06:46:00.564Z,11.66
2023-04-20T06:48:32.643Z,11.74
2023-04-20T06:51:02.040Z,11.81
2023-04-20T06:53:30.223Z,11.90
2023-04-20T06:55:58.248Z,12.01
2023-04-20T06:58:26.628Z,12.12
2023-04-20T07:00:54.642Z,12.22
2023-04-20T07:03:23.158Z,12.31
2023-04-20T07:05:51.563Z,12.36
2023-04-20T07:08:20.347Z,12.40
2023-04-20T07:10:50.172Z,12.42
2023-04-20T07:13:18.506Z,12.39
2023-04-20T07:15:46.612Z,12.34
2023-04-20T07:18:14.907Z,12.33
2023-04-20T07:20:43.030Z,12.35
2023-04-20T07:23:11.124Z,12.30
2023-04-20T07:25:39.363Z,12.24
2023-04-20T07:28:07.485Z,12.22
2023-04-20T07:30:35.900Z,12.25
2023-04-20T07:33:04.169Z,12.25
2023-04-20T07:35:32.692Z,12.22
2023-04-20T07:38:00.902Z,12.18
2023-04-20T07:40:29.178Z,12.15
2023-04-20T07:42:57.533Z,12.12
2023-04-20T07:45:25.925Z,12.09
2023-04-20T07:47:55.318Z,12.09
2023-04-20T07:50:23.378Z,12.10
2023-04-20T07:52:51.618Z,12.11
2023-04-20T07:55:19.816Z,12.11
2023-04-20T07:57:47.983Z,12.08
2023-04-20T08:00:16.750Z,12.05
2023-04-20T08:02:47.035Z,12.04
2023-04-20T08:05:15.460Z,12.03
2023-04-20T08:07:43.879Z,12.01
2023-04-20T08:10:11.981Z,12.00
2023-04-20T08:12:40.560Z,12.00
2023-04-20T08:15:10.045Z,12.00
2023-04-20T08:17:38.353Z,12.03
2023-04-20T08:20:08.131Z,11.97
2023-04-20T08:22:37.211Z,11.74
2023-04-20T08:25:05.790Z,11.66
2023-04-20T08:27:35.147Z,11.59
2023-04-20T08:30:04.560Z,11.55
2023-04-20T08:32:33.457Z,11.63
2023-04-20T08:35:01.901Z,11.72
2023-04-20T08:37:32.511Z,11.67
2023-04-20T08:40:01.319Z,11.60
2023-04-20T08:42:29.695Z,11.55
2023-04-20T08:44:58.648Z,11.51
2023-04-20T08:47:28.184Z,11.48
2023-04-20T08:49:56.519Z,11.45
2023-04-20T08:52:24.629Z,11.42
2023-04-20T08:54:57.427Z,11.35
2023-04-20T08:57:26.536Z,11.31
2023-04-20T08:59:54.716Z,11.27
2023-04-20T09:02:22.988Z,11.21
2023-04-20T09:05:01.434Z,11.17
2023-04-20T09:07:29.910Z,11.10
2023-04-20T09:09:59.189Z,11.12
2023-04-20T09:12:28.155Z,11.08
2023-04-20T09:14:56.979Z,11.04
2023-04-20T09:17:32.742Z,11.02
2023-04-20T09:20:01.190Z,11.02
2023-04-20T09:22:33.757Z,11.02
2023-04-20T09:25:13.569Z,11.04
2023-04-20T09:27:42.064Z,11.03
2023-04-20T09:30:11.013Z,11.00
2023-04-20T09:32:40.040Z,10.96
2023-04-20T09:35:08.669Z,10.93
2023-04-20T09:37:47.401Z,10.88
2023-04-20T09:40:16.574Z,10.93
2023-04-20T09:42:45.047Z,10.94
2023-04-20T09:45:14.797Z,10.91
2023-04-20T09:47:43.232Z,10.93
2023-04-20T09:50:24.752Z,10.96
2023-04-20T09:52:57.674Z,11.00
2023-04-20T09:55:26.793Z,11.04
2023-04-20T09:57:54.941Z,11.14
2023-04-20T10:00:23.230Z,11.23
2023-04-20T10:02:51.568Z,11.31
2023-04-20T10:05:19.940Z,11.37
2023-04-20T10:07:48.128Z,11.44
2023-04-20T10:10:16.609Z,11.52
2023-04-20T10:12:47.903Z,11.56
2023-04-20T10:15:16.286Z,11.63
2023-04-20T10:17:44.940Z,11.67
2023-04-20T10:20:26.372Z,11.70
2023-04-20T10:23:06.848Z,11.71
2023-04-20T10:25:34.965Z,11.73
2023-04-20T10:28:06.342Z,11.71
2023-04-20T10:30:35.482Z,11.66
2023-04-20T10:33:06.661Z,11.62
2023-04-20T10:35:54.926Z,11.59
2023-04-20T10:38:33.379Z,11.59
2023-04-20T10:41:11.142Z,11.61
2023-04-20T10:43:42.360Z,11.63
2023-04-20T10:46:28.527Z,11.54
2023-04-20T10:49:01.577Z,11.47
2023-04-20T10:51:29.998Z,11.45
2023-04-20T10:54:10.509Z,11.49
2023-04-20T10:56:40.743Z,11.51
2023-04-20T10:59:09.880Z,11.50
2023-04-20T11:01:38.255Z,11.51
2023-04-20T11:04:07.393Z,11.54
2023-04-20T11:06:37.206Z,11.58
2023-04-20T11:09:22.840Z,11.59
2023-04-20T11:12:02.167Z,11.77
2023-04-20T11:14:32.164Z,11.81
2023-04-20T11:17:00.483Z,11.79
2023-04-20T11:19:33.113Z,11.74
2023-04-20T11:22:04.701Z,11.75
2023-04-20T11:24:37.418Z,11.77
2023-04-20T11:27:43.229Z,11.83
2023-04-20T11:30:11.570Z,11.86
2023-04-20T11:32:40.393Z,11.86
2023-04-20T11:35:11.236Z,11.86
2023-04-20T11:37:51.692Z,11.89
2023-04-20T11:40:20.047Z,11.96
2023-04-20T11:42:51.882Z,12.00
2023-04-20T11:45:20.082Z,12.04
2023-04-20T11:47:49.472Z,12.07
2023-04-20T11:50:17.668Z,12.12
2023-04-20T11:52:45.767Z,12.18
2023-04-20T11:55:14.066Z,12.23
2023-04-20T11:57:42.680Z,12.26
2023-04-20T12:00:13.163Z,12.29
2023-04-20T12:02:44.152Z,12.33
2023-04-20T12:05:15.703Z,12.36
2023-04-20T12:07:44.052Z,12.38
2023-04-20T12:10:12.085Z,12.40
2023-04-20T12:12:42.156Z,12.42
2023-04-20T12:15:10.926Z,12.42
2023-04-20T12:17:39.273Z,12.40
2023-04-20T12:20:09.025Z,12.38
2023-04-20T12:22:37.621Z,12.39
2023-04-20T12:25:06.730Z,12.40
2023-04-20T12:27:35.854Z,12.38
2023-04-20T12:30:04.828Z,12.37
2023-04-20T12:32:33.989Z,12.36
2023-04-20T12:35:02.782Z,12.38
2023-04-20T12:37:32.154Z,12.38
2023-04-20T12:40:00.306Z,12.38
2023-04-20T12:42:28.609Z,12.38
2023-04-20T12:44:56.801Z,12.38
2023-04-20T12:47:24.922Z,12.40
2023-04-20T12:49:53.001Z,12.39
2023-04-20T12:52:21.146Z,12.37
2023-04-20T12:54:50.024Z,12.36
2023-04-20T12:57:18.059Z,12.39
2023-04-20T12:59:48.765Z,12.40
2023-04-20T13:02:20.315Z,12.44
2023-04-20T13:04:48.506Z,12.48
2023-04-20T13:07:17.167Z,12.51
2023-04-20T13:09:45.255Z,12.54
2023-04-20T13:12:13.387Z,12.55
2023-04-20T13:14:42.617Z,12.54
2023-04-20T13:17:10.729Z,12.51
2023-04-20T13:19:38.981Z,12.51
2023-04-20T13:22:07.067Z,12.52
2023-04-20T13:24:35.848Z,12.53
2023-04-20T13:27:04.712Z,12.51
2023-04-20T13:29:32.992Z,12.49
2023-04-20T13:32:01.153Z,12.44
2023-04-20T13:34:29.556Z,12.36
2023-04-20T13:36:58.406Z,12.30
2023-04-20T13:39:27.905Z,12.26
2023-04-20T13:41:56.907Z,12.23
2023-04-20T13:44:25.301Z,12.23
2023-04-20T13:46:53.508Z,12.22
2023-04-20T13:49:25.009Z,12.24
2023-04-20T13:51:53.190Z,12.27
2023-04-20T13:54:21.389Z,12.31
2023-04-20T13:56:49.464Z,12.35
2023-04-20T13:59:17.479Z,12.37
2023-04-20T14:01:45.720Z,12.38
2023-04-20T14:04:16.840Z,12.40
2023-04-20T14:06:45.515Z,12.44
2023-04-20T14:09:13.695Z,12.47
2023-04-20T14:11:43.801Z,12.51
2023-04-20T14:14:12.249Z,12.54
2023-04-20T14:16:44.552Z,12.57
2023-04-20T14:19:13.151Z,12.57
2023-04-20T14:21:41.536Z,12.59
2023-04-20T14:24:11.677Z,12.61
2023-04-20T14:26:39.941Z,12.59
2023-04-20T14:29:08.084Z,12.59
2023-04-20T14:31:38.876Z,12.60
2023-04-20T14:34:07.328Z,12.62
2023-04-20T14:36:36.255Z,12.68
2023-04-20T14:39:05.194Z,12.74
2023-04-20T14:41:35.199Z,12.82
2023-04-20T14:44:04.106Z,12.89
2023-04-20T14:46:33.348Z,12.97
2023-04-20T14:49:01.735Z,13.04
2023-04-20T14:51:30.011Z,13.09
2023-04-20T14:53:58.262Z,13.13
2023-04-20T14:56:26.523Z,13.16
2023-04-20T14:58:56.047Z,13.19
2023-04-20T15:01:24.174Z,13.24
2023-04-20T15:03:52.636Z,13.29
2023-04-20T15:06:21.075Z,13.32
2023-04-20T15:08:49.165Z,13.34
2023-04-20T15:11:17.293Z,13.36
2023-04-20T15:13:45.515Z,13.36
2023-04-20T15:16:13.576Z,13.38
2023-04-20T15:18:41.757Z,13.38
2023-04-20T15:21:11.009Z,13.38
2023-04-20T15:23:39.470Z,13.39
2023-04-20T15:26:08.414Z,13.41
2023-04-20T15:28:36.567Z,13.42
2023-04-20T15:31:07.313Z,13.43
2023-04-20T15:33:36.104Z,13.44
2023-04-20T15:36:04.952Z,13.45
2023-04-20T15:38:33.127Z,13.44
2023-04-20T15:41:01.231Z,13.45
2023-04-20T15:43:29.699Z,13.46
2023-04-20T15:45:58.065Z,13.43
2023-04-20T15:48:27.405Z,13.38
2023-04-20T15:50:55.473Z,13.34
2023-04-20T15:53:24.373Z,13.35
2023-04-20T15:55:52.630Z,13.35
2023-04-20T15:58:21.553Z,13.36
2023-04-20T16:00:49.750Z,13.36
2023-04-20T16:03:18.134Z,13.36
2023-04-20T16:05:46.362Z,13.35
2023-04-20T16:08:14.697Z,13.31
2023-04-20T16:10:42.926Z,13.30
2023-04-20T16:13:12.048Z,13.26
2023-04-20T16:15:40.338Z,13.20
2023-04-20T16:18:08.516Z,13.17
2023-04-20T16:20:36.610Z,13.15
2023-04-20T16:23:04.895Z,13.13
2023-04-20T16:25:34.418Z,13.09
2023-04-20T16:28:03.472Z,13.07
2023-04-20T16:30:33.126Z,13.05
2023-04-20T16:33:01.804Z,13.04
2023-04-20T16:35:30.097Z,13.02
2023-04-20T16:37:58.194Z,13.02
2023-04-20T16:40:26.535Z,13.02
2023-04-20T16:42:54.637Z,13.01
2023-04-20T16:45:22.723Z,12.99
2023-04-20T16:47:51.484Z,12.99
2023-04-20T16:50:20.577Z,12.98
2023-04-20T16:52:49.191Z,12.99
2023-04-20T16:55:17.330Z,12.98
2023-04-20T16:57:45.398Z,12.99
2023-04-20T17:00:14.365Z,13.00
2023-04-20T17:02:42.764Z,13.02
2023-04-20T17:05:11.311Z,13.03
2023-04-20T17:07:40.168Z,13.04
2023-04-20T17:10:08.701Z,13.05
2023-04-20T17:12:36.889Z,13.06
2023-04-20T17:15:05.312Z,13.09
2023-04-20T17:17:35.052Z,13.09
2023-04-20T17:20:07.058Z,13.10
2023-04-20T17:22:38.100Z,13.10
2023-04-20T17:25:07.588Z,13.10
2023-04-20T17:27:36.394Z,13.10
2023-04-20T17:30:05.489Z,13.10
2023-04-20T17:32:34.394Z,13.10
2023-04-20T17:35:03.020Z,13.10
2023-04-20T17:37:35.486Z,13.09
2023-04-20T17:40:05.173Z,13.09
2023-04-20T17:42:33.548Z,13.08
2023-04-20T17:45:01.604Z,13.09
2023-04-20T17:47:32.706Z,13.08
2023-04-20T17:50:01.113Z,13.07
2023-04-20T17:52:29.507Z,13.07
2023-04-20T17:54:57.593Z,13.05
2023-04-20T17:57:25.868Z,13.03
2023-04-20T17:59:54.060Z,12.98
2023-04-20T18:02:23.712Z,12.95
2023-04-20T18:04:52.176Z,12.93
2023-04-20T18:07:20.775Z,12.92
2023-04-20T18:09:48.906Z,12.91
2023-04-20T18:12:17.021Z,12.91
2023-04-20T18:14:45.412Z,12.91
2023-04-20T18:17:13.771Z,12.91
2023-04-20T18:19:41.902Z,12.91
2023-04-20T18:22:10.263Z,12.90
2023-04-20T18:24:38.508Z,12.89
2023-04-20T18:27:06.587Z,12.88
2023-04-20T18:29:35.483Z,12.87
2023-04-20T18:32:03.876Z,12.87
2023-04-20T18:34:32.322Z,12.86
2023-04-20T18:37:00.456Z,12.86
2023-04-20T18:39:28.517Z,12.85
2023-04-20T18:41:56.622Z,12.83
2023-04-20T18:44:24.702Z,12.80
2023-04-20T18:46:52.771Z,12.76
2023-04-20T18:49:20.910Z,12.74
2023-04-20T18:51:49.125Z,12.69
2023-04-20T18:54:17.355Z,12.66
2023-04-20T18:56:45.917Z,12.63
2023-04-20T18:59:14.010Z,12.59
2023-04-20T19:01:42.400Z,12.55
2023-04-20T19:04:10.633Z,12.54
2023-04-20T19:06:39.140Z,12.51
2023-04-20T19:09:08.374Z,12.48
2023-04-20T19:11:36.697Z,12.43
2023-04-20T19:14:04.830Z,12.39
2023-04-20T19:16:33.358Z,12.32
2023-04-20T19:19:01.552Z,12.25
2023-04-20T19:21:30.368Z,12.17
2023-04-20T19:23:58.431Z,12.08
2023-04-20T19:26:26.646Z,12.00
2023-04-20T19:28:54.805Z,11.92
2023-04-20T19:31:23.012Z,11.86
2023-04-20T19:33:51.263Z,11.77
2023-04-20T19:36:19.753Z,11.70
2023-04-20T19:38:47.873Z,11.64
2023-04-20T19:41:16.026Z,11.60
2023-04-20T19:43:44.388Z,11.56
2023-04-20T19:46:15.252Z,11.52
2023-04-20T19:48:45.364Z,11.50
2023-04-20T19:51:13.538Z,11.43
2023-04-20T19:53:42.124Z,11.36
2023-04-20T19:56:10.170Z,11.32
2023-04-20T19:58:38.266Z,11.29
2023-04-20T20:01:06.606Z,11.27
2023-04-20T20:03:34.931Z,11.23
2023-04-20T20:06:03.936Z,11.18
2023-04-20T20:08:32.056Z,11.13
2023-04-20T20:11:00.400Z,11.13
2023-04-20T20:13:28.641Z,11.13
2023-04-20T20:15:57.000Z,11.16
2023-04-20T20:18:25.343Z,11.18
2023-04-20T20:20:53.525Z,11.16
2023-04-20T20:23:21.920Z,11.15
2023-04-20T20:25:50.198Z,11.14
2023-04-20T20:28:18.793Z,11.13
2023-04-20T20:30:47.073Z,11.11
2023-04-20T20:33:15.954Z,11.09
2023-04-20T20:35:44.467Z,11.06
2023-04-20T20:38:12.738Z,11.04
2023-04-20T20:40:40.801Z,11.00
2023-04-20T20:43:09.001Z,10.98
2023-04-20T20:45:37.678Z,10.96
2023-04-20T20:48:06.244Z,10.96
2023-04-20T20:50:35.071Z,10.97
2023-04-20T20:53:03.337Z,10.96
2023-04-20T20:55:31.509Z,10.93
2023-04-20T20:57:59.686Z,10.91
2023-04-20T21:00:27.811Z,10.89
2023-04-20T21:02:57.263Z,10.88
2023-04-20T21:05:25.659Z,10.89
2023-04-20T21:07:54.116Z,10.88
2023-04-20T21:10:22.437Z,10.88
2023-04-20T21:12:51.136Z,10.86
2023-04-20T21:15:19.177Z,10.85
2023-04-20T21:17:47.300Z,10.83
2023-04-20T21:20:15.555Z,10.82
2023-04-20T21:22:43.972Z,10.79
2023-04-20T21:25:12.128Z,10.73
2023-04-20T21:27:40.407Z,10.70
2023-04-20T21:30:09.770Z,10.69
2023-04-20T21:32:37.885Z,10.70
2023-04-20T21:35:06.691Z,10.65
2023-04-20T21:37:35.151Z,10.61
2023-04-20T21:40:03.979Z,10.58
2023-04-20T21:42:32.242Z,10.53
2023-04-20T21:45:00.521Z,10.47
2023-04-20T21:47:28.845Z,10.45
2023-04-20T21:49:56.993Z,10.45
2023-04-20T21:52:25.394Z,10.44
2023-04-20T21:54:53.469Z,10.44
2023-04-20T21:57:21.621Z,10.42
2023-04-20T21:59:49.665Z,10.42
2023-04-20T22:02:17.963Z,10.40
2023-04-20T22:04:46.396Z,10.39
2023-04-20T22:07:17.782Z,10.37
2023-04-20T22:09:45.814Z,10.35
2023-04-20T22:12:13.935Z,10.34
2023-04-20T22:14:41.948Z,10.30
2023-04-20T22:17:11.897Z,10.27
2023-04-20T22:19:40.461Z,10.25
2023-04-20T22:22:08.463Z,10.24
2023-04-20T22:24:36.823Z,10.22
2023-04-20T22:27:04.895Z,10.21
2023-04-20T22:29:33.675Z,10.19
2023-04-20T22:32:01.686Z,10.19
2023-04-20T22:34:30.031Z,10.17
2023-04-20T22:36:57.990Z,10.15
2023-04-20T22:39:26.063Z,10.12
2023-04-20T22:41:54.235Z,10.09
2023-04-20T22:44:22.224Z,10.07
2023-04-20T22:46:51.355Z,10.04
2023-04-20T22:49:19.700Z,10.03
2023-04-20T22:51:48.127Z,10.02
2023-04-20T22:54:16.182Z,10.01
2023-04-20T22:56:44.227Z,10.01
2023-04-20T22:59:12.284Z,10.00
2023-04-20T23:01:40.344Z,10.00
2023-04-20T23:04:08.499Z,10.00
2023-04-20T23:06:38.006Z,10.00
2023-04-20T23:09:08.443Z,10.01
2023-04-20T23:11:39.008Z,10.01
2023-04-20T23:14:07.717Z,10.01
2023-04-20T23:16:36.010Z,10.00
2023-04-20T23:19:04.054Z,9.98
2023-04-20T23:21:32.944Z,9.98
2023-04-20T23:24:01.088Z,10.00
2023-04-20T23:26:29.479Z,10.02
2023-04-20T23:28:57.769Z,10.03
2023-04-20T23:31:26.069Z,10.05
2023-04-20T23:33:54.316Z,10.08
2023-04-20T23:36:22.445Z,10.08
2023-04-20T23:38:50.881Z,10.08
2023-04-20T23:41:19.377Z,10.09
2023-04-20T23:43:47.614Z,10.09
2023-04-20T23:46:15.884Z,10.09
2023-04-20T23:48:44.113Z,10.09
2023-04-20T23:51:13.206Z,10.09
2023-04-20T23:53:41.202Z,10.11
2023-04-20T23:56:09.277Z,10.10
2023-04-20T23:58:38.232Z,10.10
